createdAt,value
2018-04-26T00:00:09.357Z,211
2018-04-26T00:00:21.814Z,213
2018-04-26T00:00:34.237Z,217
2018-04-26T00:00:46.650Z,194
2018-04-26T00:00:59.077Z,293
2018-04-26T00:01:11.486Z,301
2018-04-26T00:01:23.929Z,301
2018-04-26T00:01:36.345Z,204
2018-04-26T00:01:48.887Z,178
2018-04-26T00:02:01.328Z,188
2018-04-26T00:02:13.757Z,213
2018-04-26T00:02:26.168Z,188
2018-04-26T00:02:38.601Z,234
2018-04-26T00:02:51.027Z,213
2018-04-26T00:03:03.442Z,213
2018-04-26T00:03:15.866Z,220
2018-04-26T00:03:28.272Z,180
2018-04-26T00:03:40.701Z,239
2018-04-26T00:03:53.127Z,236
2018-04-26T00:04:05.527Z,236
2018-04-26T00:04:17.947Z,239
2018-04-26T00:04:30.380Z,190
2018-04-26T00:04:42.796Z,190
2018-04-26T00:04:55.224Z,190
2018-04-26T00:05:07.642Z,190
2018-04-26T00:05:20.059Z,190
2018-04-26T00:05:32.467Z,190
2018-04-26T00:05:44.880Z,190
2018-04-26T00:05:57.293Z,169
2018-04-26T00:06:09.719Z,204
2018-04-26T00:06:22.145Z,203
2018-04-26T00:06:34.556Z,193
2018-04-26T00:06:47.047Z,192
2018-04-26T00:06:59.474Z,155
2018-04-26T00:07:11.903Z,155
2018-04-26T00:07:24.310Z,159
2018-04-26T00:07:36.719Z,163
2018-04-26T00:07:49.156Z,182
2018-04-26T00:08:01.589Z,188
2018-04-26T00:08:14.028Z,188
2018-04-26T00:08:26.441Z,191
2018-04-26T00:08:38.854Z,191
2018-04-26T00:08:51.257Z,211
2018-04-26T00:09:03.668Z,225
2018-04-26T00:09:16.080Z,257
2018-04-26T00:09:28.519Z,257
2018-04-26T00:09:40.939Z,257
2018-04-26T00:09:53.347Z,264
2018-04-26T00:10:05.776Z,264
2018-04-26T00:10:18.215Z,157
2018-04-26T00:10:30.633Z,147
2018-04-26T00:10:43.351Z,147
2018-04-26T00:10:55.825Z,147
2018-04-26T00:11:08.237Z,180
2018-04-26T00:11:20.740Z,198
2018-04-26T00:11:33.165Z,198
2018-04-26T00:11:45.580Z,198
2018-04-26T00:11:58.001Z,200
2018-04-26T00:12:10.415Z,243
2018-04-26T00:12:22.838Z,223
2018-04-26T00:12:35.283Z,223
2018-04-26T00:12:47.690Z,211
2018-04-26T00:13:00.287Z,211
2018-04-26T00:13:12.703Z,193
2018-04-26T00:13:25.121Z,193
2018-04-26T00:13:37.644Z,209
2018-04-26T00:13:50.074Z,230
2018-04-26T00:14:02.494Z,230
2018-04-26T00:14:14.983Z,230
2018-04-26T00:14:27.412Z,230
2018-04-26T00:14:39.838Z,230
2018-04-26T00:14:52.245Z,179
2018-04-26T00:15:04.675Z,167
2018-04-26T00:15:17.092Z,225
2018-04-26T00:15:29.512Z,174
2018-04-26T00:15:41.919Z,196
2018-04-26T00:15:54.341Z,198
2018-04-26T00:16:06.776Z,198
2018-04-26T00:16:19.180Z,175
2018-04-26T00:16:31.595Z,175
2018-04-26T00:16:44.002Z,175
2018-04-26T00:16:56.439Z,307
2018-04-26T00:17:08.855Z,311
2018-04-26T00:17:21.272Z,197
2018-04-26T00:17:33.696Z,223
2018-04-26T00:17:46.111Z,224
2018-04-26T00:17:58.524Z,198
2018-04-26T00:18:10.938Z,199
2018-04-26T00:18:23.348Z,199
2018-04-26T00:18:36.217Z,199
2018-04-26T00:18:48.654Z,213
2018-04-26T00:19:01.056Z,213
2018-04-26T00:19:13.476Z,213
2018-04-26T00:19:26.037Z,213
2018-04-26T00:19:38.453Z,213
2018-04-26T00:19:50.871Z,192
2018-04-26T00:20:03.284Z,216
2018-04-26T00:20:15.715Z,216
2018-04-26T00:20:28.119Z,206
2018-04-26T00:20:40.538Z,205
2018-04-26T00:20:52.939Z,206
2018-04-26T00:21:05.360Z,203
2018-04-26T00:21:17.762Z,203
2018-04-26T00:21:30.181Z,203
2018-04-26T00:21:42.601Z,203
2018-04-26T00:21:55.019Z,203
2018-04-26T00:22:07.437Z,221
2018-04-26T00:22:19.837Z,202
2018-04-26T00:22:32.261Z,213
2018-04-26T00:22:44.682Z,282
2018-04-26T00:22:57.195Z,289
2018-04-26T00:23:09.602Z,288
2018-04-26T00:23:22.007Z,212
2018-04-26T00:23:34.450Z,169
2018-04-26T00:23:46.866Z,221
2018-04-26T00:23:59.285Z,221
2018-04-26T00:24:11.689Z,221
2018-04-26T00:24:24.088Z,220
2018-04-26T00:24:36.501Z,219
2018-04-26T00:24:48.901Z,202
2018-04-26T00:25:01.327Z,203
2018-04-26T00:25:13.759Z,203
2018-04-26T00:25:26.178Z,203
2018-04-26T00:25:38.576Z,202
2018-04-26T00:25:50.988Z,170
2018-04-26T00:26:03.398Z,188
2018-04-26T00:26:15.897Z,192
2018-04-26T00:26:28.300Z,196
2018-04-26T00:26:40.712Z,196
2018-04-26T00:26:53.133Z,196
2018-04-26T00:27:05.536Z,196
2018-04-26T00:27:18.011Z,196
2018-04-26T00:27:30.415Z,196
2018-04-26T00:27:42.838Z,259
2018-04-26T00:27:55.408Z,223
2018-04-26T00:28:07.828Z,207
2018-04-26T00:28:20.251Z,207
2018-04-26T00:28:32.664Z,207
2018-04-26T00:28:45.093Z,207
2018-04-26T00:28:57.510Z,207
2018-04-26T00:29:09.941Z,207
2018-04-26T00:29:22.356Z,207
2018-04-26T00:29:34.762Z,207
2018-04-26T00:29:47.175Z,188
2018-04-26T00:29:59.584Z,198
2018-04-26T00:30:11.999Z,207
2018-04-26T00:30:24.419Z,207
2018-04-26T00:30:36.826Z,207
2018-04-26T00:30:49.264Z,207
2018-04-26T00:31:01.689Z,207
2018-04-26T00:31:14.117Z,207
2018-04-26T00:31:26.542Z,207
2018-04-26T00:31:38.954Z,279
2018-04-26T00:31:51.381Z,279
2018-04-26T00:32:03.799Z,279
2018-04-26T00:32:16.239Z,279
2018-04-26T00:32:28.659Z,254
2018-04-26T00:32:41.071Z,254
2018-04-26T00:32:53.722Z,254
2018-04-26T00:33:06.144Z,244
2018-04-26T00:33:18.569Z,244
2018-04-26T00:33:30.987Z,200
2018-04-26T00:33:43.414Z,200
2018-04-26T00:33:55.836Z,185
2018-04-26T00:34:08.257Z,189
2018-04-26T00:34:20.660Z,194
2018-04-26T00:34:33.178Z,194
2018-04-26T00:34:45.593Z,194
2018-04-26T00:34:58.003Z,194
2018-04-26T00:35:10.528Z,194
2018-04-26T00:35:22.950Z,194
2018-04-26T00:35:35.368Z,194
2018-04-26T00:35:47.800Z,194
2018-04-26T00:36:00.199Z,194
2018-04-26T00:36:12.622Z,194
2018-04-26T00:36:25.042Z,194
2018-04-26T00:36:37.467Z,194
2018-04-26T00:36:49.875Z,194
2018-04-26T00:37:02.308Z,196
2018-04-26T00:37:14.727Z,235
2018-04-26T00:37:27.297Z,238
2018-04-26T00:37:39.705Z,175
2018-04-26T00:37:52.124Z,192
2018-04-26T00:38:04.537Z,192
2018-04-26T00:38:16.949Z,142
2018-04-26T00:38:29.385Z,212
2018-04-26T00:38:41.797Z,225
2018-04-26T00:38:54.225Z,236
2018-04-26T00:39:06.646Z,236
2018-04-26T00:39:19.134Z,177
2018-04-26T00:39:31.535Z,201
2018-04-26T00:39:43.954Z,186
2018-04-26T00:39:56.369Z,196
2018-04-26T00:40:08.783Z,217
2018-04-26T00:40:21.187Z,224
2018-04-26T00:40:33.582Z,165
2018-04-26T00:40:45.985Z,178
2018-04-26T00:40:58.393Z,197
2018-04-26T00:41:10.818Z,200
2018-04-26T00:41:23.235Z,203
2018-04-26T00:41:35.725Z,215
2018-04-26T00:41:48.167Z,215
2018-04-26T00:42:00.576Z,227
2018-04-26T00:42:12.978Z,223
2018-04-26T00:42:25.611Z,222
2018-04-26T00:42:38.018Z,222
2018-04-26T00:42:50.425Z,194
2018-04-26T00:43:02.935Z,211
2018-04-26T00:43:15.345Z,198
2018-04-26T00:43:27.782Z,197
2018-04-26T00:43:40.195Z,229
2018-04-26T00:43:52.613Z,199
2018-04-26T00:44:05.031Z,201
2018-04-26T00:44:17.498Z,185
2018-04-26T00:44:29.906Z,178
2018-04-26T00:44:42.399Z,178
2018-04-26T00:44:54.811Z,227
2018-04-26T00:45:07.243Z,227
2018-04-26T00:45:19.845Z,224
2018-04-26T00:45:32.479Z,155
2018-04-26T00:45:44.897Z,198
2018-04-26T00:45:57.434Z,209
2018-04-26T00:46:09.870Z,206
2018-04-26T00:46:22.285Z,188
2018-04-26T00:46:34.709Z,188
2018-04-26T00:46:47.104Z,188
2018-04-26T00:46:59.527Z,188
2018-04-26T00:47:11.939Z,189
2018-04-26T00:47:24.392Z,189
2018-04-26T00:47:36.814Z,169
2018-04-26T00:47:49.227Z,238
2018-04-26T00:48:02.219Z,233
2018-04-26T00:48:14.983Z,233
2018-04-26T00:48:27.381Z,209
2018-04-26T00:48:39.781Z,205
2018-04-26T00:48:52.201Z,205
2018-04-26T00:49:04.611Z,205
2018-04-26T00:49:17.026Z,205
2018-04-26T00:49:29.432Z,223
2018-04-26T00:49:41.847Z,210
2018-04-26T00:49:54.268Z,224
2018-04-26T00:50:06.935Z,216
2018-04-26T00:50:19.340Z,196
2018-04-26T00:50:31.752Z,189
2018-04-26T00:50:44.163Z,183
2018-04-26T00:50:56.569Z,194
2018-04-26T00:51:08.986Z,226
2018-04-26T00:51:21.397Z,217
2018-04-26T00:51:33.806Z,217
2018-04-26T00:51:46.227Z,217
2018-04-26T00:51:58.641Z,217
2018-04-26T00:52:11.046Z,217
2018-04-26T00:52:23.454Z,217
2018-04-26T00:52:35.858Z,217
2018-04-26T00:52:48.272Z,217
2018-04-26T00:53:00.681Z,217
2018-04-26T00:53:13.082Z,148
2018-04-26T00:53:25.494Z,148
2018-04-26T00:53:37.906Z,148
2018-04-26T00:53:50.318Z,148
2018-04-26T00:54:02.724Z,148
2018-04-26T00:54:15.151Z,148
2018-04-26T00:54:27.576Z,148
2018-04-26T00:54:39.979Z,153
2018-04-26T00:54:52.382Z,163
2018-04-26T00:55:04.827Z,163
2018-04-26T00:55:17.372Z,205
2018-04-26T00:55:29.786Z,205
2018-04-26T00:55:42.189Z,244
2018-04-26T00:55:54.595Z,222
2018-04-26T00:56:07.014Z,222
2018-04-26T00:56:19.458Z,222
2018-04-26T00:56:31.863Z,222
2018-04-26T00:56:44.269Z,226
2018-04-26T00:56:56.727Z,217
2018-04-26T00:57:09.142Z,210
2018-04-26T00:57:21.550Z,193
2018-04-26T00:57:33.966Z,193
2018-04-26T00:57:46.392Z,194
2018-04-26T00:57:58.824Z,221
2018-04-26T00:58:11.243Z,213
2018-04-26T00:58:23.648Z,210
2018-04-26T00:58:36.052Z,225
2018-04-26T00:58:48.473Z,225
2018-04-26T00:59:00.893Z,212
2018-04-26T00:59:13.307Z,205
2018-04-26T00:59:25.715Z,171
2018-04-26T00:59:38.122Z,182
2018-04-26T00:59:50.588Z,229
2018-04-26T01:00:02.997Z,202
2018-04-26T01:00:15.520Z,194
2018-04-26T01:00:27.975Z,194
2018-04-26T01:00:40.420Z,194
2018-04-26T01:00:52.838Z,192
2018-04-26T01:01:05.270Z,211
2018-04-26T01:01:17.781Z,272
2018-04-26T01:01:30.208Z,272
2018-04-26T01:01:42.619Z,272
2018-04-26T01:01:55.136Z,272
2018-04-26T01:02:07.573Z,272
2018-04-26T01:02:20.006Z,272
2018-04-26T01:02:32.422Z,272
2018-04-26T01:02:44.839Z,272
2018-04-26T01:02:57.257Z,272
2018-04-26T01:03:09.709Z,248
2018-04-26T01:03:22.165Z,248
2018-04-26T01:03:34.582Z,248
2018-04-26T01:03:47.013Z,248
2018-04-26T01:03:59.416Z,248
2018-04-26T01:04:11.839Z,252
2018-04-26T01:04:24.253Z,252
2018-04-26T01:04:36.666Z,264
2018-04-26T01:04:49.080Z,264
2018-04-26T01:05:01.673Z,264
2018-04-26T01:05:14.149Z,264
2018-04-26T01:05:26.578Z,264
2018-04-26T01:05:39.040Z,264
2018-04-26T01:05:51.472Z,264
2018-04-26T01:06:03.908Z,264
2018-04-26T01:06:16.357Z,338
2018-04-26T01:06:28.772Z,338
2018-04-26T01:06:41.177Z,338
2018-04-26T01:06:53.585Z,338
2018-04-26T01:07:06.012Z,338
2018-04-26T01:07:18.427Z,338
2018-04-26T01:07:30.914Z,338
2018-04-26T01:07:43.332Z,338
2018-04-26T01:07:55.796Z,338
2018-04-26T01:08:08.203Z,338
2018-04-26T01:08:20.624Z,298
2018-04-26T01:08:33.043Z,298
2018-04-26T01:08:45.460Z,298
2018-04-26T01:08:57.874Z,298
2018-04-26T01:09:10.285Z,250
2018-04-26T01:09:22.685Z,248
2018-04-26T01:09:35.153Z,248
2018-04-26T01:09:47.648Z,248
2018-04-26T01:10:00.066Z,248
2018-04-26T01:10:12.490Z,244
2018-04-26T01:10:24.905Z,241
2018-04-26T01:10:37.427Z,241
2018-04-26T01:10:49.865Z,241
2018-04-26T01:11:02.294Z,240
2018-04-26T01:11:14.719Z,240
2018-04-26T01:11:27.130Z,240
2018-04-26T01:11:39.542Z,248
2018-04-26T01:11:51.982Z,247
2018-04-26T01:12:04.424Z,242
2018-04-26T01:12:16.865Z,263
2018-04-26T01:12:29.278Z,262
2018-04-26T01:12:41.700Z,205
2018-04-26T01:12:54.113Z,203
2018-04-26T01:13:06.541Z,204
2018-04-26T01:13:18.969Z,204
2018-04-26T01:13:31.375Z,204
2018-04-26T01:13:43.919Z,186
2018-04-26T01:13:56.329Z,193
2018-04-26T01:14:08.764Z,193
2018-04-26T01:14:21.189Z,193
2018-04-26T01:14:33.691Z,193
2018-04-26T01:14:46.107Z,200
2018-04-26T01:14:58.588Z,245
2018-04-26T01:15:11.008Z,245
2018-04-26T01:15:23.422Z,256
2018-04-26T01:15:35.831Z,256
2018-04-26T01:15:48.296Z,256
2018-04-26T01:16:00.717Z,256
2018-04-26T01:16:13.145Z,256
2018-04-26T01:16:25.554Z,244
2018-04-26T01:16:37.972Z,240
2018-04-26T01:16:50.385Z,198
2018-04-26T01:17:02.804Z,198
2018-04-26T01:17:15.226Z,192
2018-04-26T01:17:27.650Z,192
2018-04-26T01:17:40.049Z,192
2018-04-26T01:17:52.464Z,192
2018-04-26T01:18:04.870Z,192
2018-04-26T01:18:17.280Z,227
2018-04-26T01:18:30.037Z,227
2018-04-26T01:18:42.571Z,186
2018-04-26T01:18:54.977Z,203
2018-04-26T01:19:07.464Z,204
2018-04-26T01:19:19.970Z,195
2018-04-26T01:19:32.423Z,191
2018-04-26T01:19:44.844Z,200
2018-04-26T01:19:57.375Z,203
2018-04-26T01:20:10.464Z,246
2018-04-26T01:20:23.109Z,246
2018-04-26T01:20:35.613Z,181
2018-04-26T01:20:48.035Z,178
2018-04-26T01:21:00.451Z,178
2018-04-26T01:21:12.865Z,285
2018-04-26T01:21:25.274Z,284
2018-04-26T01:21:37.681Z,225
2018-04-26T01:21:50.097Z,197
2018-04-26T01:22:02.504Z,184
2018-04-26T01:22:14.931Z,225
2018-04-26T01:22:27.335Z,225
2018-04-26T01:22:39.750Z,203
2018-04-26T01:22:52.215Z,196
2018-04-26T01:23:04.631Z,196
2018-04-26T01:23:17.036Z,202
2018-04-26T01:23:29.460Z,202
2018-04-26T01:23:41.878Z,241
2018-04-26T01:23:54.278Z,195
2018-04-26T01:24:06.692Z,215
2018-04-26T01:24:19.165Z,205
2018-04-26T01:24:31.585Z,192
2018-04-26T01:24:43.995Z,194
2018-04-26T01:24:56.419Z,267
2018-04-26T01:25:08.840Z,221
2018-04-26T01:25:21.242Z,221
2018-04-26T01:25:33.644Z,195
2018-04-26T01:25:46.061Z,195
2018-04-26T01:25:58.454Z,194
2018-04-26T01:26:10.866Z,194
2018-04-26T01:26:23.271Z,194
2018-04-26T01:26:35.677Z,194
2018-04-26T01:26:48.088Z,194
2018-04-26T01:27:00.499Z,200
2018-04-26T01:27:12.972Z,200
2018-04-26T01:27:25.380Z,203
2018-04-26T01:27:37.806Z,211
2018-04-26T01:27:50.248Z,215
2018-04-26T01:28:02.713Z,228
2018-04-26T01:28:15.129Z,210
2018-04-26T01:28:27.552Z,211
2018-04-26T01:28:40.000Z,187
2018-04-26T01:28:52.407Z,195
2018-04-26T01:29:04.818Z,204
2018-04-26T01:29:17.234Z,239
2018-04-26T01:29:29.641Z,212
2018-04-26T01:29:42.072Z,212
2018-04-26T01:29:54.482Z,212
2018-04-26T01:30:06.891Z,212
2018-04-26T01:30:19.305Z,233
2018-04-26T01:30:31.715Z,233
2018-04-26T01:30:44.110Z,181
2018-04-26T01:30:56.528Z,195
2018-04-26T01:31:08.943Z,217
2018-04-26T01:31:21.352Z,225
2018-04-26T01:31:33.762Z,225
2018-04-26T01:31:46.173Z,225
2018-04-26T01:31:58.612Z,225
2018-04-26T01:32:11.025Z,179
2018-04-26T01:32:23.438Z,196
2018-04-26T01:32:35.840Z,209
2018-04-26T01:32:48.351Z,205
2018-04-26T01:33:00.968Z,203
2018-04-26T01:33:13.379Z,202
2018-04-26T01:33:25.796Z,213
2018-04-26T01:33:38.238Z,213
2018-04-26T01:33:50.717Z,239
2018-04-26T01:34:03.130Z,242
2018-04-26T01:34:15.547Z,306
2018-04-26T01:34:27.973Z,171
2018-04-26T01:34:40.379Z,142
2018-04-26T01:34:52.799Z,144
2018-04-26T01:35:05.214Z,182
2018-04-26T01:35:17.690Z,169
2018-04-26T01:35:30.104Z,175
2018-04-26T01:35:42.579Z,211
2018-04-26T01:35:54.999Z,319
2018-04-26T01:36:07.418Z,319
2018-04-26T01:36:19.831Z,249
2018-04-26T01:36:32.236Z,292
2018-04-26T01:36:44.634Z,292
2018-04-26T01:36:57.044Z,291
2018-04-26T01:37:09.446Z,248
2018-04-26T01:37:21.846Z,163
2018-04-26T01:37:34.259Z,141
2018-04-26T01:37:46.662Z,138
2018-04-26T01:37:59.113Z,214
2018-04-26T01:38:11.671Z,173
2018-04-26T01:38:24.079Z,208
2018-04-26T01:38:36.506Z,217
2018-04-26T01:38:48.931Z,186
2018-04-26T01:39:01.335Z,218
2018-04-26T01:39:13.758Z,230
2018-04-26T01:39:26.191Z,278
2018-04-26T01:39:38.617Z,283
2018-04-26T01:39:51.019Z,290
2018-04-26T01:40:03.422Z,289
2018-04-26T01:40:15.855Z,342
2018-04-26T01:40:28.261Z,329
2018-04-26T01:40:40.666Z,329
2018-04-26T01:40:53.076Z,217
2018-04-26T01:41:05.491Z,290
2018-04-26T01:41:17.906Z,271
2018-04-26T01:41:30.331Z,220
2018-04-26T01:41:42.819Z,207
2018-04-26T01:41:55.335Z,207
2018-04-26T01:42:07.746Z,207
2018-04-26T01:42:20.177Z,207
2018-04-26T01:42:32.577Z,207
2018-04-26T01:42:45.061Z,207
2018-04-26T01:42:57.855Z,207
2018-04-26T01:43:10.349Z,206
2018-04-26T01:43:22.751Z,184
2018-04-26T01:43:35.163Z,211
2018-04-26T01:43:47.587Z,211
2018-04-26T01:44:00.063Z,211
2018-04-26T01:44:12.508Z,229
2018-04-26T01:44:24.913Z,233
2018-04-26T01:44:37.316Z,233
2018-04-26T01:44:49.738Z,194
2018-04-26T01:45:02.142Z,178
2018-04-26T01:45:14.576Z,160
2018-04-26T01:45:26.989Z,155
2018-04-26T01:45:39.431Z,155
2018-04-26T01:45:51.922Z,155
2018-04-26T01:46:04.339Z,155
2018-04-26T01:46:16.845Z,155
2018-04-26T01:46:29.261Z,155
2018-04-26T01:46:41.673Z,155
2018-04-26T01:46:54.094Z,279
2018-04-26T01:47:06.502Z,279
2018-04-26T01:47:18.910Z,279
2018-04-26T01:47:31.388Z,154
2018-04-26T01:47:43.800Z,180
2018-04-26T01:47:56.322Z,169
2018-04-26T01:48:08.992Z,161
2018-04-26T01:48:21.409Z,194
2018-04-26T01:48:33.896Z,193
2018-04-26T01:48:46.306Z,193
2018-04-26T01:48:58.720Z,193
2018-04-26T01:49:11.148Z,193
2018-04-26T01:49:23.563Z,193
2018-04-26T01:49:35.962Z,193
2018-04-26T01:49:48.405Z,194
2018-04-26T01:50:00.817Z,194
2018-04-26T01:50:13.340Z,196
2018-04-26T01:50:25.762Z,195
2018-04-26T01:50:38.182Z,194
2018-04-26T01:50:50.599Z,211
2018-04-26T01:51:03.032Z,211
2018-04-26T01:51:15.433Z,215
2018-04-26T01:51:27.885Z,202
2018-04-26T01:51:40.292Z,207
2018-04-26T01:51:52.700Z,201
2018-04-26T01:52:05.124Z,201
2018-04-26T01:52:17.561Z,252
2018-04-26T01:52:29.977Z,277
2018-04-26T01:52:42.391Z,161
2018-04-26T01:52:54.808Z,204
2018-04-26T01:53:07.210Z,189
2018-04-26T01:53:19.946Z,189
2018-04-26T01:53:32.425Z,191
2018-04-26T01:53:44.833Z,175
2018-04-26T01:53:57.246Z,161
2018-04-26T01:54:09.679Z,192
2018-04-26T01:54:22.100Z,182
2018-04-26T01:54:34.545Z,259
2018-04-26T01:54:46.974Z,290
2018-04-26T01:54:59.384Z,273
2018-04-26T01:55:11.832Z,273
2018-04-26T01:55:24.250Z,273
2018-04-26T01:55:36.666Z,270
2018-04-26T01:55:49.069Z,218
2018-04-26T01:56:01.495Z,196
2018-04-26T01:56:13.914Z,179
2018-04-26T01:56:26.315Z,179
2018-04-26T01:56:38.726Z,187
2018-04-26T01:56:51.145Z,205
2018-04-26T01:57:03.664Z,218
2018-04-26T01:57:16.086Z,152
2018-04-26T01:57:28.502Z,167
2018-04-26T01:57:40.925Z,167
2018-04-26T01:57:53.335Z,167
2018-04-26T01:58:05.735Z,262
2018-04-26T01:58:18.185Z,197
2018-04-26T01:58:30.598Z,186
2018-04-26T01:58:43.016Z,210
2018-04-26T01:58:55.457Z,202
2018-04-26T01:59:07.921Z,157
2018-04-26T01:59:20.356Z,153
2018-04-26T01:59:32.769Z,177
2018-04-26T01:59:45.195Z,184
2018-04-26T01:59:57.609Z,183
2018-04-26T02:00:10.062Z,172
2018-04-26T02:00:22.585Z,200
2018-04-26T02:00:35.053Z,252
2018-04-26T02:00:47.507Z,198
2018-04-26T02:00:59.933Z,261
2018-04-26T02:01:12.355Z,282
2018-04-26T02:01:24.774Z,178
2018-04-26T02:01:37.178Z,169
2018-04-26T02:01:49.609Z,209
2018-04-26T02:02:02.043Z,205
2018-04-26T02:02:14.461Z,162
2018-04-26T02:02:26.861Z,195
2018-04-26T02:02:39.277Z,190
2018-04-26T02:02:51.784Z,210
2018-04-26T02:03:04.303Z,181
2018-04-26T02:03:16.801Z,180
2018-04-26T02:03:29.228Z,203
2018-04-26T02:03:41.652Z,192
2018-04-26T02:03:54.063Z,192
2018-04-26T02:04:06.497Z,200
2018-04-26T02:04:18.918Z,200
2018-04-26T02:04:31.345Z,216
2018-04-26T02:04:43.769Z,188
2018-04-26T02:04:56.187Z,231
2018-04-26T02:05:08.617Z,254
2018-04-26T02:05:21.026Z,223
2018-04-26T02:05:33.445Z,286
2018-04-26T02:05:45.857Z,200
2018-04-26T02:05:58.271Z,191
2018-04-26T02:06:10.673Z,147
2018-04-26T02:06:23.091Z,142
2018-04-26T02:06:35.516Z,149
2018-04-26T02:06:47.929Z,177
2018-04-26T02:07:00.351Z,196
2018-04-26T02:07:12.778Z,205
2018-04-26T02:07:25.190Z,205
2018-04-26T02:07:37.679Z,205
2018-04-26T02:07:50.103Z,254
2018-04-26T02:08:02.501Z,254
2018-04-26T02:08:14.946Z,188
2018-04-26T02:08:27.369Z,176
2018-04-26T02:08:39.804Z,205
2018-04-26T02:08:52.212Z,177
2018-04-26T02:09:04.634Z,204
2018-04-26T02:09:17.057Z,194
2018-04-26T02:09:29.490Z,217
2018-04-26T02:09:41.921Z,211
2018-04-26T02:09:54.392Z,202
2018-04-26T02:10:06.827Z,267
2018-04-26T02:10:19.248Z,195
2018-04-26T02:10:31.656Z,198
2018-04-26T02:10:44.076Z,186
2018-04-26T02:10:56.514Z,200
2018-04-26T02:11:08.913Z,186
2018-04-26T02:11:21.329Z,186
2018-04-26T02:11:33.741Z,186
2018-04-26T02:11:46.167Z,245
2018-04-26T02:11:58.563Z,219
2018-04-26T02:12:11.007Z,222
2018-04-26T02:12:23.427Z,212
2018-04-26T02:12:35.837Z,194
2018-04-26T02:12:48.246Z,212
2018-04-26T02:13:00.671Z,217
2018-04-26T02:13:13.107Z,244
2018-04-26T02:13:25.605Z,211
2018-04-26T02:13:38.188Z,226
2018-04-26T02:13:50.616Z,212
2018-04-26T02:14:03.025Z,167
2018-04-26T02:14:15.454Z,184
2018-04-26T02:14:27.904Z,184
2018-04-26T02:14:40.318Z,193
2018-04-26T02:14:52.741Z,185
2018-04-26T02:15:05.182Z,186
2018-04-26T02:15:17.604Z,186
2018-04-26T02:15:30.009Z,194
2018-04-26T02:15:42.416Z,248
2018-04-26T02:15:54.890Z,247
2018-04-26T02:16:07.318Z,234
2018-04-26T02:16:19.751Z,234
2018-04-26T02:16:32.169Z,234
2018-04-26T02:16:44.587Z,234
2018-04-26T02:16:57.007Z,234
2018-04-26T02:17:09.427Z,200
2018-04-26T02:17:21.831Z,198
2018-04-26T02:17:34.269Z,213
2018-04-26T02:17:46.682Z,213
2018-04-26T02:17:59.101Z,213
2018-04-26T02:18:11.498Z,213
2018-04-26T02:18:23.982Z,166
2018-04-26T02:18:36.545Z,175
2018-04-26T02:18:48.952Z,174
2018-04-26T02:19:01.356Z,173
2018-04-26T02:19:13.769Z,173
2018-04-26T02:19:26.214Z,173
2018-04-26T02:19:38.633Z,173
2018-04-26T02:19:51.032Z,173
2018-04-26T02:20:03.435Z,173
2018-04-26T02:20:15.844Z,88
2018-04-26T02:20:28.339Z,175
2018-04-26T02:20:40.748Z,175
2018-04-26T02:20:53.176Z,175
2018-04-26T02:21:05.594Z,175
2018-04-26T02:21:18.010Z,169
2018-04-26T02:21:30.428Z,178
2018-04-26T02:21:42.860Z,177
2018-04-26T02:21:55.408Z,177
2018-04-26T02:22:07.839Z,191
2018-04-26T02:22:20.275Z,191
2018-04-26T02:22:32.768Z,191
2018-04-26T02:22:45.184Z,191
2018-04-26T02:22:57.623Z,192
2018-04-26T02:23:10.041Z,217
2018-04-26T02:23:22.460Z,217
2018-04-26T02:23:34.920Z,178
2018-04-26T02:23:47.431Z,188
2018-04-26T02:23:59.843Z,188
2018-04-26T02:24:12.258Z,152
2018-04-26T02:24:24.654Z,106
2018-04-26T02:24:37.049Z,123
2018-04-26T02:24:49.454Z,159
2018-04-26T02:25:01.874Z,249
2018-04-26T02:25:14.294Z,249
2018-04-26T02:25:26.740Z,173
2018-04-26T02:25:39.160Z,187
2018-04-26T02:25:51.568Z,221
2018-04-26T02:26:04.042Z,213
2018-04-26T02:26:16.539Z,201
2018-04-26T02:26:28.965Z,209
2018-04-26T02:26:41.373Z,209
2018-04-26T02:26:53.803Z,206
2018-04-26T02:27:06.229Z,229
2018-04-26T02:27:18.649Z,229
2018-04-26T02:27:31.074Z,229
2018-04-26T02:27:43.476Z,229
2018-04-26T02:27:55.972Z,327
2018-04-26T02:28:08.379Z,327
2018-04-26T02:28:20.814Z,207
2018-04-26T02:28:33.335Z,205
2018-04-26T02:28:45.755Z,205
2018-04-26T02:28:58.153Z,202
2018-04-26T02:29:10.572Z,196
2018-04-26T02:29:22.984Z,291
2018-04-26T02:29:35.589Z,182
2018-04-26T02:29:48.068Z,277
2018-04-26T02:30:00.468Z,321
2018-04-26T02:30:12.923Z,312
2018-04-26T02:30:25.339Z,247
2018-04-26T02:30:37.856Z,247
2018-04-26T02:30:50.269Z,247
2018-04-26T02:31:02.724Z,223
2018-04-26T02:31:15.167Z,223
2018-04-26T02:31:27.674Z,223
2018-04-26T02:31:40.091Z,222
2018-04-26T02:31:52.558Z,222
2018-04-26T02:32:05.013Z,222
2018-04-26T02:32:17.526Z,219
2018-04-26T02:32:29.962Z,241
2018-04-26T02:32:42.394Z,236
2018-04-26T02:32:55.107Z,236
2018-04-26T02:33:07.579Z,232
2018-04-26T02:33:20.026Z,232
2018-04-26T02:33:32.563Z,232
2018-04-26T02:33:44.993Z,232
2018-04-26T02:33:57.435Z,232
2018-04-26T02:34:09.858Z,232
2018-04-26T02:34:22.286Z,232
2018-04-26T02:34:34.743Z,232
2018-04-26T02:34:47.199Z,232
2018-04-26T02:34:59.639Z,234
2018-04-26T02:35:12.079Z,230
2018-04-26T02:35:24.533Z,234
2018-04-26T02:35:36.966Z,242
2018-04-26T02:35:49.375Z,241
2018-04-26T02:36:01.814Z,211
2018-04-26T02:36:14.287Z,214
2018-04-26T02:36:26.709Z,214
2018-04-26T02:36:39.126Z,214
2018-04-26T02:36:51.561Z,214
2018-04-26T02:37:04.022Z,214
2018-04-26T02:37:16.452Z,214
2018-04-26T02:37:28.879Z,213
2018-04-26T02:37:41.422Z,195
2018-04-26T02:37:53.860Z,163
2018-04-26T02:38:06.404Z,184
2018-04-26T02:38:18.839Z,192
2018-04-26T02:38:31.269Z,192
2018-04-26T02:38:43.690Z,269
2018-04-26T02:38:56.122Z,269
2018-04-26T02:39:08.558Z,269
2018-04-26T02:39:20.999Z,269
2018-04-26T02:39:33.406Z,269
2018-04-26T02:39:45.819Z,269
2018-04-26T02:39:58.232Z,269
2018-04-26T02:40:10.657Z,217
2018-04-26T02:40:23.145Z,217
2018-04-26T02:40:35.792Z,217
2018-04-26T02:40:48.226Z,217
2018-04-26T02:41:00.650Z,217
2018-04-26T02:41:13.179Z,217
2018-04-26T02:41:25.627Z,212
2018-04-26T02:41:38.062Z,215
2018-04-26T02:41:50.479Z,215
2018-04-26T02:42:02.910Z,215
2018-04-26T02:42:15.412Z,200
2018-04-26T02:42:27.842Z,200
2018-04-26T02:42:40.250Z,200
2018-04-26T02:42:52.686Z,200
2018-04-26T02:43:05.115Z,200
2018-04-26T02:43:17.549Z,200
2018-04-26T02:43:29.972Z,200
2018-04-26T02:43:42.390Z,212
2018-04-26T02:43:54.841Z,212
2018-04-26T02:44:07.274Z,212
2018-04-26T02:44:19.803Z,212
2018-04-26T02:44:32.249Z,211
2018-04-26T02:44:45.106Z,211
2018-04-26T02:44:57.514Z,199
2018-04-26T02:45:09.953Z,199
2018-04-26T02:45:22.389Z,199
2018-04-26T02:45:34.822Z,237
2018-04-26T02:45:47.382Z,251
2018-04-26T02:46:00.019Z,251
2018-04-26T02:46:12.469Z,221
2018-04-26T02:46:24.894Z,218
2018-04-26T02:46:37.336Z,218
2018-04-26T02:46:49.760Z,203
2018-04-26T02:47:02.195Z,196
2018-04-26T02:47:14.632Z,167
2018-04-26T02:47:27.048Z,167
2018-04-26T02:47:39.478Z,167
2018-04-26T02:47:51.934Z,167
2018-04-26T02:48:04.359Z,186
2018-04-26T02:48:16.943Z,202
2018-04-26T02:48:29.379Z,220
2018-04-26T02:48:41.894Z,220
2018-04-26T02:48:54.336Z,194
2018-04-26T02:49:06.942Z,202
2018-04-26T02:49:19.368Z,202
2018-04-26T02:49:31.804Z,202
2018-04-26T02:49:44.378Z,184
2018-04-26T02:49:56.819Z,196
2018-04-26T02:50:09.525Z,200
2018-04-26T02:50:21.967Z,192
2018-04-26T02:50:34.396Z,192
2018-04-26T02:50:46.815Z,184
2018-04-26T02:50:59.236Z,180
2018-04-26T02:51:11.708Z,198
2018-04-26T02:51:24.131Z,183